LFST 151230Z AUTO 04008KT CAVOK 24/10 Q1013 NOSIG

TAF LFST 151100Z 1512/1612 01006KT CAVOK BECMG 1601/1603 VRB03KT PROB40 TEMPO 1603/1608 4000 BR PROB30 TEMPO 1603/1607 0500 BCFG

 

Temperature in degrees Celsius: 24
Dew Point Temperature in degrees Celsius: 10

 

http://openflyers.com/case/icingChart.php?chart=2&temperature=24&dewPoint=10